100 Mile House, British Columbia

12:38 PM PDT on July 22, 2018 (GMT -0700)
100 Mile House | | Change Station

Elev 3323 ft 51.61 °N, 121.23 °W | Updated 2 minutes ago

Clear
Clear
73.9 °F
Feels Like 77 °F
N
1.7
Wind Variable Wind from WSW
Gusts 0.0 mph

Today
High -- | Low -- °F
--% Chance of Precip.
Yesterday
High -- | Low -- °F
Precip. -- in
Pressure 30.32 in
Visibility 9.0 miles
Clouds Few 5000 ft
Heat Index 77 °F
Dew Point 50 °F
Humidity 43%
Rainfall 0.00 in
Snow Depth Not available.
5:14 AM 9:08 PM
Waxing Gibbous, 78% visible
METAR CYIN 221900Z AUTO 12003KT 050V160 9SM FEW050 20/07 A3031 RMK SLP267 DENSITY ALT 4600FT
Pressure 30.32 in
Visibility 9.0 miles
Clouds Few 5000 ft
Heat Index 77 °F
Dew Point 50 °F
Humidity 43%
Rainfall 0.00 in
Snow Depth Not available.
5:14 AM 9:08 PM
Waxing Gibbous, 78% visible
METAR CYIN 221900Z AUTO 12003KT 050V160 9SM FEW050 20/07 A3031 RMK SLP267 DENSITY ALT 4600FT

Get Severe Weather Alerts

Thanks for signing up!

Be on the lookout for a verification email in your inbox.

You'll start receiving the daily forecast at 6 AM.

×

10-Day Weather Forecast

Almanac

Astronomy

Jul. 22, 2018 Rise Set
Actual Time
Civil Twilight
Nautical Twilight
Astronomical Twilight
Moon
Length of Visible Light
Length of Day
Tomorrow will be .
, % of the Moon is Illuminated

Today's Extremes

Country Highs Country Lows

Community

WunderPhotos

Category 6

Welcome to Category 6. This is the collective home for Weather Underground's featured writeups by Dr. Jeff Masters (right), Bob Henson (left), Chris Burt, and other regular contributors.

Nearby

Air Quality

  Air Quality AQ Index Pollutant
Not available.

Snow Depth

Station Depth Elevation

Earthquake Activity

City Distance Mag. Time & Date
Minimum magnitude displayed is 2.5.

Coastal Water Temperatures

Place Temperature

Stations

Nearby Weather Stations

Station Location Temp. Windchill Dew Point Humidity Wind Precip. Elev Updated Type
                   

Watches & Warnings

There are currently no watches in effect.